createdAt,value
2019-05-01T00:00:58.728Z,2.80
2019-05-01T00:05:05.031Z,2.43
2019-05-01T00:09:10.836Z,3.20
2019-05-01T00:13:13.242Z,3.60
2019-05-01T00:17:15.363Z,3.00
2019-05-01T00:21:17.434Z,2.83
2019-05-01T00:25:19.332Z,2.77
2019-05-01T00:29:21.246Z,2.70
2019-05-01T00:33:23.129Z,3.30
2019-05-01T00:37:25.076Z,3.67
2019-05-01T00:41:26.957Z,2.47
2019-05-01T00:45:28.853Z,2.57
2019-05-01T00:49:31.785Z,2.58
2019-05-01T00:53:33.659Z,2.63
2019-05-01T00:57:38.161Z,2.87
2019-05-01T01:01:48.908Z,2.95
2019-05-01T01:05:50.809Z,3.27
2019-05-01T01:09:52.713Z,2.70
2019-05-01T01:13:54.608Z,3.80
2019-05-01T01:17:59.378Z,2.67
2019-05-01T01:22:01.337Z,3.10
2019-05-01T01:26:03.238Z,2.90
2019-05-01T01:30:08.632Z,3.40
2019-05-01T01:34:10.548Z,2.87
2019-05-01T01:38:13.741Z,2.67
2019-05-01T01:42:16.249Z,2.70
2019-05-01T01:46:18.159Z,4.27
2019-05-01T01:50:20.130Z,2.90
2019-05-01T01:54:22.146Z,2.70
2019-05-01T01:58:25.549Z,3.80
2019-05-01T02:02:38.129Z,2.93
2019-05-01T02:06:40.010Z,2.93
2019-05-01T02:10:43.202Z,2.60
2019-05-01T02:14:46.341Z,3.17
2019-05-01T02:18:48.240Z,3.50
2019-05-01T02:22:50.906Z,3.60
2019-05-01T02:26:55.995Z,2.80
2019-05-01T02:31:27.316Z,2.72
2019-05-01T02:35:20.496Z,3.47
2019-05-01T02:39:23.607Z,2.93
2019-05-01T02:43:30.061Z,2.90
2019-05-01T02:47:36.265Z,3.30
2019-05-01T02:51:42.480Z,3.30
2019-05-01T02:56:03.079Z,3.85
2019-05-01T03:00:07.163Z,3.00
2019-05-01T03:04:11.274Z,2.80
2019-05-01T03:08:13.336Z,3.10
2019-05-01T03:12:17.350Z,3.17
2019-05-01T03:16:21.163Z,3.50
2019-05-01T03:20:43.121Z,3.90
2019-05-01T03:24:45.092Z,2.80
2019-05-01T03:28:47.634Z,2.73
2019-05-01T03:32:49.596Z,2.83
2019-05-01T03:37:04.859Z,3.53
2019-05-01T03:41:07.297Z,3.43
2019-05-01T03:45:09.433Z,3.67
2019-05-01T03:49:11.879Z,3.37
2019-05-01T03:53:14.483Z,3.10
2019-05-01T03:57:16.819Z,3.83
2019-05-01T04:01:25.101Z,3.80
2019-05-01T04:05:27.346Z,4.12
2019-05-01T04:09:29.371Z,3.20
2019-05-01T04:13:32.609Z,3.57
2019-05-01T04:17:36.783Z,3.27
2019-05-01T04:21:40.581Z,4.40
2019-05-01T04:25:43.387Z,4.45
2019-05-01T04:29:47.087Z,3.75
2019-05-01T04:33:53.319Z,5.60
2019-05-01T04:37:58.952Z,4.60
2019-05-01T04:42:01.367Z,4.77
2019-05-01T04:46:03.751Z,5.00
2019-05-01T04:50:07.647Z,4.70
2019-05-01T04:54:09.880Z,3.67
2019-05-01T04:58:11.833Z,4.67
2019-05-01T05:02:15.440Z,5.43
2019-05-01T05:06:18.467Z,4.30
2019-05-01T05:10:20.764Z,4.40
2019-05-01T05:14:24.911Z,5.50
2019-05-01T05:18:27.341Z,6.00
2019-05-01T05:22:30.481Z,5.33
2019-05-01T05:26:33.127Z,6.27
2019-05-01T05:30:36.724Z,4.00
2019-05-01T05:34:41.396Z,6.45
2019-05-01T05:38:50.306Z,5.30
2019-05-01T05:42:52.626Z,5.53
2019-05-01T05:46:54.850Z,5.90
2019-05-01T05:51:14.412Z,5.73
2019-05-01T05:55:34.008Z,5.73
2019-05-01T05:59:41.981Z,6.47
2019-05-01T06:03:47.066Z,5.40
2019-05-01T06:08:13.477Z,6.35
2019-05-01T06:12:18.439Z,6.17
2019-05-01T06:16:32.950Z,6.00
2019-05-01T06:20:37.646Z,6.90
2019-05-01T06:24:56.627Z,9.37
2019-05-01T06:29:00.671Z,10.57
2019-05-01T06:33:04.178Z,10.40
2019-05-01T06:37:07.685Z,10.90
2019-05-01T06:41:09.930Z,12.73
2019-05-01T06:45:16.797Z,14.27
2019-05-01T06:49:37.420Z,19.20
2019-05-01T06:53:40.217Z,16.67
2019-05-01T06:57:45.493Z,19.80
2019-05-01T07:01:48.545Z,16.48
2019-05-01T07:05:54.256Z,14.80
2019-05-01T07:09:58.023Z,16.87
2019-05-01T07:14:01.448Z,20.40
2019-05-01T07:18:05.143Z,19.13
2019-05-01T07:22:07.473Z,19.53
2019-05-01T07:26:13.670Z,20.90
2019-05-01T07:30:28.591Z,17.77
2019-05-01T07:34:30.574Z,20.03
2019-05-01T07:38:38.288Z,20.33
2019-05-01T07:42:43.678Z,19.77
2019-05-01T07:46:48.800Z,19.27
2019-05-01T07:50:50.113Z,16.85
2019-05-01T07:54:53.735Z,20.23
2019-05-01T07:58:55.838Z,18.80
2019-05-01T08:02:57.917Z,20.50
2019-05-01T08:06:59.838Z,18.80
2019-05-01T08:11:05.346Z,20.17
2019-05-01T08:15:07.302Z,17.77
2019-05-01T08:19:10.864Z,18.10
2019-05-01T08:23:13.727Z,19.27
2019-05-01T08:27:20.234Z,15.93
2019-05-01T08:31:27.887Z,14.57
2019-05-01T08:35:31.734Z,15.93
2019-05-01T08:39:33.513Z,14.40
2019-05-01T08:43:36.485Z,17.67
2019-05-01T08:47:40.131Z,15.85
2019-05-01T08:51:42.043Z,15.33
2019-05-01T08:55:45.178Z,14.87
2019-05-01T08:59:47.595Z,13.83
2019-05-01T09:03:53.711Z,13.43
2019-05-01T09:07:56.116Z,16.37
2019-05-01T09:11:56.761Z,13.47
2019-05-01T09:15:58.708Z,15.80
2019-05-01T09:20:00.701Z,16.20
2019-05-01T09:24:02.761Z,14.13
2019-05-01T09:28:12.905Z,14.97
2019-05-01T09:32:14.876Z,14.03
2019-05-01T09:36:16.874Z,13.07
2019-05-01T09:40:19.374Z,13.67
2019-05-01T09:44:21.303Z,14.03
2019-05-01T09:48:23.684Z,14.83
2019-05-01T09:52:43.421Z,13.93
2019-05-01T09:56:45.412Z,13.22
2019-05-01T10:00:48.806Z,13.58
2019-05-01T10:04:51.258Z,15.50
2019-05-01T10:08:53.479Z,14.83
2019-05-01T10:13:08.229Z,13.73
2019-05-01T10:17:13.488Z,14.47
2019-05-01T10:21:14.871Z,15.20
2019-05-01T10:25:16.784Z,13.23
2019-05-01T10:29:25.752Z,13.77
2019-05-01T10:33:29.065Z,12.93
2019-05-01T10:37:33.851Z,13.27
2019-05-01T10:41:34.352Z,12.30
2019-05-01T10:45:36.266Z,13.37
2019-05-01T10:49:39.178Z,12.20
2019-05-01T10:53:43.222Z,11.38
2019-05-01T10:57:44.784Z,13.53
2019-05-01T11:01:51.099Z,13.03
2019-05-01T11:05:56.197Z,12.47
2019-05-01T11:09:56.869Z,11.13
2019-05-01T11:13:58.780Z,11.00
2019-05-01T11:18:00.721Z,12.63
2019-05-01T11:22:02.644Z,11.43
2019-05-01T11:26:04.608Z,11.60
2019-05-01T11:30:08.783Z,11.20
2019-05-01T11:34:18.231Z,11.80
2019-05-01T11:38:28.659Z,12.20
2019-05-01T11:42:30.584Z,11.93
2019-05-01T11:46:32.519Z,11.67
2019-05-01T11:50:34.458Z,10.73
2019-05-01T11:54:36.387Z,11.20
2019-05-01T11:58:38.302Z,11.63
2019-05-01T12:02:40.293Z,13.38
2019-05-01T12:06:42.221Z,10.87
2019-05-01T12:10:46.465Z,10.98
2019-05-01T12:14:48.407Z,10.82
2019-05-01T12:18:50.356Z,11.80
2019-05-01T12:22:52.270Z,11.10
2019-05-01T12:26:54.214Z,11.63
2019-05-01T12:30:56.205Z,11.10
2019-05-01T12:34:58.184Z,12.43
2019-05-01T12:39:00.174Z,10.53
2019-05-01T12:43:03.305Z,12.97
2019-05-01T12:47:23.188Z,12.33
2019-05-01T12:51:25.499Z,11.63
2019-05-01T12:55:45.624Z,12.10
2019-05-01T12:59:47.548Z,12.18
2019-05-01T13:03:50.545Z,12.07
2019-05-01T13:07:53.398Z,9.13
2019-05-01T13:11:55.570Z,12.40
2019-05-01T13:15:58.760Z,11.17
2019-05-01T13:20:00.670Z,10.73
2019-05-01T13:24:02.597Z,10.60
2019-05-01T13:28:22.425Z,10.30
2019-05-01T13:32:28.674Z,11.30
2019-05-01T13:36:30.570Z,9.70
2019-05-01T13:40:32.783Z,11.47
2019-05-01T13:44:34.695Z,12.13
2019-05-01T13:48:36.623Z,10.55
2019-05-01T13:52:38.553Z,9.93
2019-05-01T13:56:40.538Z,8.70
2019-05-01T14:00:42.520Z,7.43
2019-05-01T14:04:44.488Z,8.20
2019-05-01T14:08:46.416Z,9.55
2019-05-01T14:12:48.326Z,9.43
2019-05-01T14:16:50.253Z,7.65
2019-05-01T14:20:51.932Z,7.53
2019-05-01T14:25:13.786Z,7.97
2019-05-01T14:29:15.704Z,7.57
2019-05-01T14:33:17.626Z,9.00
2019-05-01T14:37:29.479Z,8.40
2019-05-01T14:41:23.445Z,7.87
2019-05-01T14:45:25.426Z,8.53
2019-05-01T14:49:27.338Z,8.40
2019-05-01T14:53:29.248Z,8.13
2019-05-01T14:57:31.152Z,8.70
2019-05-01T15:01:33.539Z,8.77
2019-05-01T15:05:35.991Z,8.40
2019-05-01T15:09:37.910Z,8.13
2019-05-01T15:13:57.274Z,7.92
2019-05-01T15:18:16.917Z,8.00
2019-05-01T15:22:19.173Z,7.27
2019-05-01T15:26:21.144Z,8.50
2019-05-01T15:30:23.373Z,16.03
2019-05-01T15:34:25.280Z,8.53
2019-05-01T15:38:27.480Z,9.13
2019-05-01T15:42:34.017Z,9.73
2019-05-01T15:46:37.583Z,8.70
2019-05-01T15:50:42.298Z,8.80
2019-05-01T15:54:43.121Z,9.10
2019-05-01T15:58:45.050Z,8.90
2019-05-01T16:02:46.956Z,9.00
2019-05-01T16:06:48.879Z,8.77
2019-05-01T16:11:08.474Z,7.77
2019-05-01T16:15:13.451Z,6.97
2019-05-01T16:19:15.417Z,8.13
2019-05-01T16:23:17.357Z,8.60
2019-05-01T16:27:19.273Z,7.40
2019-05-01T16:31:21.196Z,8.27
2019-05-01T16:35:23.119Z,7.93
2019-05-01T16:39:27.638Z,8.23
2019-05-01T16:43:29.573Z,8.30
2019-05-01T16:47:32.615Z,8.65
2019-05-01T16:51:37.294Z,8.50
2019-05-01T16:55:39.721Z,7.45
2019-05-01T16:59:41.641Z,6.72
2019-05-01T17:03:54.329Z,8.67
2019-05-01T17:07:56.026Z,8.23
2019-05-01T17:11:58.383Z,9.40
2019-05-01T17:16:00.319Z,9.40
2019-05-01T17:20:02.216Z,8.13
2019-05-01T17:24:04.311Z,8.30
2019-05-01T17:28:08.304Z,8.07
2019-05-01T17:32:11.656Z,8.07
2019-05-01T17:36:13.578Z,7.93
2019-05-01T17:40:15.902Z,8.43
2019-05-01T17:44:20.240Z,9.13
2019-05-01T17:48:21.495Z,8.27
2019-05-01T17:52:23.464Z,7.07
2019-05-01T17:56:28.564Z,8.63
2019-05-01T18:00:34.621Z,10.33
2019-05-01T18:04:50.089Z,8.50
2019-05-01T18:09:02.460Z,9.83
2019-05-01T18:12:55.614Z,10.27
2019-05-01T18:16:57.596Z,8.70
2019-05-01T18:20:59.655Z,9.60
2019-05-01T18:25:01.819Z,7.93
2019-05-01T18:29:12.073Z,9.47
2019-05-01T18:33:13.985Z,9.33
2019-05-01T18:37:35.124Z,7.70
2019-05-01T18:41:37.742Z,6.40
2019-05-01T18:45:52.749Z,6.90
2019-05-01T18:49:54.747Z,6.73
2019-05-01T18:53:57.778Z,6.17
2019-05-01T18:58:00.774Z,6.87
2019-05-01T19:02:02.928Z,7.30
2019-05-01T19:06:04.986Z,6.63
2019-05-01T19:10:07.601Z,6.70
2019-05-01T19:14:09.757Z,8.93
2019-05-01T19:18:11.786Z,10.77
2019-05-01T19:22:14.336Z,11.97
2019-05-01T19:26:17.283Z,10.70
2019-05-01T19:30:19.787Z,9.93
2019-05-01T19:34:21.706Z,8.80
2019-05-01T19:38:24.259Z,8.90
2019-05-01T19:42:26.162Z,8.17
2019-05-01T19:46:28.091Z,7.43
2019-05-01T19:50:30.340Z,7.47
2019-05-01T19:54:32.900Z,7.35
2019-05-01T19:58:34.819Z,7.90
2019-05-01T20:02:36.753Z,9.03
2019-05-01T20:06:40.204Z,10.40
2019-05-01T20:10:43.107Z,8.50
2019-05-01T20:14:45.030Z,7.28
2019-05-01T20:18:47.028Z,8.13
2019-05-01T20:22:52.987Z,7.67
2019-05-01T20:26:53.827Z,8.33
2019-05-01T20:30:56.807Z,8.03
2019-05-01T20:34:59.503Z,8.13
2019-05-01T20:39:01.894Z,8.43
2019-05-01T20:43:07.161Z,9.50
2019-05-01T20:47:09.295Z,9.80
2019-05-01T20:51:11.278Z,8.97
2019-05-01T20:55:13.722Z,7.20
2019-05-01T20:59:15.886Z,8.80
2019-05-01T21:03:18.255Z,7.37
2019-05-01T21:07:31.972Z,7.50
2019-05-01T21:11:36.354Z,9.20
2019-05-01T21:15:38.245Z,9.60
2019-05-01T21:19:40.586Z,9.65
2019-05-01T21:23:43.547Z,10.75
2019-05-01T21:27:47.396Z,10.17
2019-05-01T21:31:49.284Z,7.60
2019-05-01T21:35:53.243Z,11.00
2019-05-01T21:39:54.804Z,8.43
2019-05-01T21:43:56.707Z,9.10
2019-05-01T21:47:58.606Z,8.50
2019-05-01T21:52:00.508Z,9.53
2019-05-01T21:56:06.155Z,8.57
2019-05-01T22:00:09.274Z,9.60
2019-05-01T22:04:12.839Z,8.70
2019-05-01T22:08:14.768Z,10.20
2019-05-01T22:12:16.885Z,9.83
2019-05-01T22:16:26.424Z,9.67
2019-05-01T22:20:29.951Z,7.87
2019-05-01T22:24:34.740Z,11.23
2019-05-01T22:28:44.158Z,11.27
2019-05-01T22:32:53.669Z,11.65
2019-05-01T22:36:55.577Z,13.33
2019-05-01T22:41:06.057Z,11.90
2019-05-01T22:45:02.765Z,12.10
2019-05-01T22:49:05.449Z,11.23
2019-05-01T22:53:08.037Z,12.13
2019-05-01T22:57:11.044Z,9.27
2019-05-01T23:01:18.130Z,9.07
2019-05-01T23:05:18.653Z,9.10
2019-05-01T23:09:23.556Z,10.10
2019-05-01T23:13:25.912Z,9.80
2019-05-01T23:17:29.459Z,11.97
2019-05-01T23:21:31.364Z,10.03
2019-05-01T23:25:36.634Z,8.73
2019-05-01T23:29:36.867Z,13.30
2019-05-01T23:33:38.758Z,8.50
2019-05-01T23:37:40.669Z,11.85
2019-05-01T23:41:47.102Z,11.50
2019-05-01T23:45:46.174Z,9.00
2019-05-01T23:49:52.572Z,12.93
2019-05-01T23:53:51.781Z,10.73
2019-05-01T23:57:53.664Z,9.20
